Latest Coastal Weather Observations for Lucinda

IDQ60701

Issued at 3:12 am EST Monday 15 February 2016 (issued every 10 minutes, with the page automatically refreshed every 10 minutes)

About coastal observations | Map of coastal stations | Coastal observations for QLD | Marine services | Other Formats
Station Details ID: 032141 Name: LUCINDA POINT Lat: -18.52 Lon: 146.39 Height: 10.0 m
Data from the previous 72 hours. | See also: Recent months at Lucinda
Date/Time
EST
Temp

°C
Wind Pressure Rain
since 9am
mm
Weather Cloud Vis
km
Sea
Height
m
Swell
Dir
 
Speed
knots
Gust
knots
hPa Trend Height
m
Period
s
Dir
15/03:00am 26.1 WSW 9 10 1007.0 - 0.0 - - - - - - -
15/02:30am 26.6 WSW 7 8 1007.2 - 0.0 - - - - - - -
15/02:00am 26.8 WSW 8 11 1007.6 - 0.0 - - - - - - -
15/01:30am 27.6 SW 6 7 1007.7 - 0.0 - - - - - - -
15/01:00am 27.6 SSW 6 7 1008.0 - 0.0 - - - - - - -
15/12:30am 27.0 SSW 8 11 1008.3 - 0.0 - - - - - - -
15/12:00am 27.9 SW 6 8 1008.7 - 0.0 - - - - - - -
 
Date/Time
EST
Temp

°C
Wind Pressure Rain
since 9am
mm
Weather Cloud Vis
km
Sea
Height
m
Swell
Dir
 
Speed
knots
Gust
knots
hPa Trend Height
m
Period
s
Dir
14/11:30pm 28.6 NW 5 10 1008.9 - 0.0 - - - - - - -
14/11:00pm 28.5 WSW 5 6 1009.1 - 0.0 - - - - - - -
14/10:30pm 28.7 W 4 6 1009.1 - 0.0 - - - - - - -
14/10:00pm 28.9 NNW 12 15 1008.8 - 0.0 - - - - - - -
14/09:30pm 28.8 NNW 15 18 1008.5 - 0.0 - - - - - - -
14/09:00pm 28.9 NNW 15 18 1008.2 - 0.0 - - - - - - -
14/08:30pm 28.9 NNW 15 18 1007.9 - 0.0 - - - - - - -
14/08:00pm 29.2 NNW 14 16 1007.5 - 0.0 - - - - - - -
14/07:30pm 29.1 N 12 15 1006.9 - 0.0 - - - - - - -
14/07:00pm 29.1 N 12 14 1006.5 - 0.0 - - - - - - -
14/06:30pm 29.3 N 13 16 1006.1 - 0.0 - - - - - - -
14/06:00pm 29.5 N 13 16 1005.6 - 0.0 - - - - - - -
14/05:30pm 29.6 N 14 17 1005.3 - 0.0 - - - - - - -
14/05:00pm 29.7 N 15 18 1005.0 - 0.0 - - - - - - -
14/04:30pm 29.7 N 14 18 1004.7 - 0.0 - - - - - - -
14/04:00pm 29.4 N 15 17 1004.8 - 0.0 - - - - - - -
14/03:30pm 29.6 N 14 18 1004.9 - 0.0 - - - - - - -
14/03:00pm 29.5 N 15 19 1005.0 - 0.0 - - - - - - -
14/02:30pm 29.7 N 15 18 1005.2 - 0.0 - - - - - - -
14/02:00pm 29.6 N 15 17 1005.4 - 0.0 - - - - - - -
14/01:30pm 29.4 NNE 13 17 1005.8 - 0.0 - - - - - - -
14/01:00pm 29.6 N 15 17 1006.1 - 0.0 - - - - - - -
14/12:30pm 29.2 N 13 17 1006.5 - 0.0 - - - - - - -
14/12:00pm 29.7 N 14 16 1006.8 - 0.0 - - - - - - -
14/11:30am 29.7 N 12 14 1007.2 - 0.0 - - - - - - -
14/11:00am 29.7 NNW 11 15 1007.5 - 0.0 - - - - - - -
14/10:30am 29.4 NNW 9 12 1007.6 - 0.0 - - - - - - -
14/10:00am 29.2 NNW 9 12 1007.8 - 0.0 - - - - - - -
14/09:30am 28.8 N 9 11 1008.0 - 0.0 - - - - - - -
14/09:00am 29.3 NNW 5 7 1008.1 - 0.0 - - - - - - -
14/08:30am 27.7 W 5 6 1008.1 - 0.0 - - - - - - -
14/08:00am 26.8 W 6 7 1008.0 - 0.0 - - - - - - -
14/07:30am 25.6 WSW 7 8 1007.8 - 0.0 - - - - - - -
14/07:00am 25.5 WSW 9 10 1007.5 - 0.0 - - - - - - -
14/06:30am 24.9 WSW 10 12 1007.3 - 0.0 - - - - - - -
14/06:00am 25.1 WSW 8 9 1007.1 - 0.0 - - - - - - -
14/05:30am 25.8 WSW 8 9 1006.7 - 0.0 - - - - - - -
14/05:00am 25.6 WSW 7 9 1006.6 - 0.0 - - - - - - -
14/04:30am 25.8 SW 8 9 1006.7 - 0.0 - - - - - - -
14/04:00am 25.9 WSW 7 9 1006.6 - 0.0 - - - - - - -
14/03:30am 26.0 WSW 8 9 1006.7 - 0.0 - - - - - - -
14/03:00am 26.1 WSW 7 8 1006.8 - 0.0 - - - - - - -
14/02:30am 26.9 SW 7 8 1007.0 - 0.0 - - - - - - -
14/02:00am 27.0 WSW 7 8 1007.1 - 0.0 - - - - - - -
14/01:30am 28.8 N 7 9 1007.2 - 0.0 - - - - - - -
14/01:00am 28.9 N 7 9 1007.6 - 0.0 - - - - - - -
14/12:30am 29.2 N 8 11 1007.9 - 0.0 - - - - - - -
14/12:00am 29.4 NNE 7 9 1008.1 - 0.0 - - - - - - -
 
Date/Time
EST
Temp

°C
Wind Pressure Rain
since 9am
mm
Weather Cloud Vis
km
Sea
Height
m
Swell
Dir
 
Speed
knots
Gust
knots
hPa Trend Height
m
Period
s
Dir
13/11:30pm 29.1 N 7 8 1008.4 - 0.0 - - - - - - -
13/11:00pm 28.8 W 4 6 1008.4 - 0.0 - - - - - - -
13/10:30pm 28.6 W 6 8 1008.3 - 0.0 - - - - - - -
13/10:00pm 28.7 W 7 9 1008.0 - 0.0 - - - - - - -
13/09:30pm 29.4 NNW 6 8 1007.8 - 0.0 - - - - - - -
13/09:00pm 29.4 NNW 7 10 1007.6 - 0.0 - - - - - - -
13/08:30pm 29.5 N 8 10 1007.4 - 0.0 - - - - - - -
13/08:00pm 29.5 NNW 9 11 1007.2 - 0.0 - - - - - - -
13/07:30pm 29.5 N 9 14 1006.8 - 0.0 - - - - - - -
13/07:00pm 29.2 NNW 11 14 1006.5 - 0.0 - - - - - - -
13/06:30pm 29.1 NNW 11 14 1006.2 - 0.0 - - - - - - -
13/06:00pm 29.3 NNW 11 14 1006.0 - 0.0 - - - - - - -
13/05:30pm 29.3 N 11 16 1005.8 - 0.0 - - - - - - -
13/05:00pm 29.3 N 11 14 1005.6 - 0.0 - - - - - - -
13/04:30pm 29.4 N 11 15 1005.5 - 0.0 - - - - - - -
13/04:00pm 28.9 NNE 11 14 1005.5 - 0.0 - - - - - - -
13/03:30pm 29.0 NNE 11 14 1005.6 - 0.0 - - - - - - -
13/03:00pm 28.7 ENE 11 14 1005.8 - 0.0 - - - - - - -
13/02:30pm 28.9 E 10 14 1005.9 - 0.0 - - - - - - -
13/02:00pm 29.0 E 9 13 1006.2 - 0.0 - - - - - - -
13/01:30pm 29.1 E 9 11 1006.6 - 0.0 - - - - - - -
13/01:00pm 31.2 ESE 4 6 1007.0 - 0.0 - - - - - - -
13/12:30pm 30.4 S 3 6 1007.5 - 0.0 - - - - - - -
13/12:00pm 30.2 SSE 4 6 1007.8 - 0.0 - - - - - - -
13/11:30am 30.5 SSE 4 5 1008.2 - 0.0 - - - - - - -
13/11:00am 28.9 S 5 7 1008.4 - 0.0 - - - - - - -
13/10:30am 29.3 SSE 4 6 1008.7 - 0.0 - - - - - - -
13/10:00am 28.2 SSW 3 5 1008.8 - 0.0 - - - - - - -
13/09:30am 27.9 SW 5 6 1008.9 - 0.0 - - - - - - -
13/09:00am 28.4 W 5 6 1008.9 - 0.0 - - - - - - -
13/08:30am 27.6 WSW 6 7 1008.7 - 0.0 - - - - - - -
13/08:00am 27.5 W 7 8 1008.5 - 0.0 - - - - - - -
13/07:30am 26.5 WSW 8 10 1008.3 - 0.0 - - - - - - -
13/07:00am 26.2 WSW 9 10 1007.9 - 0.0 - - - - - - -
13/06:30am 25.9 WSW 11 13 1007.7 - 0.0 - - - - - - -
13/06:00am 25.7 WSW 12 14 1007.4 - 0.0 - - - - - - -
13/05:30am 25.8 WSW 12 13 1007.2 - 0.0 - - - - - - -
13/05:00am 25.6 WSW 10 11 1006.9 - 0.0 - - - - - - -
13/04:30am 25.7 SW 9 10 1006.9 - 0.0 - - - - - - -
13/04:00am 26.1 SW 9 11 1006.9 - 0.0 - - - - - - -
13/03:30am 27.8 SSE 4 6 1006.8 - 0.0 - - - - - - -
13/03:00am 28.0 SE 5 7 1006.8 - 0.0 - - - - - - -
13/02:30am 27.8 ESE 5 8 1006.9 - 0.0 - - - - - - -
13/02:00am 27.8 SE 5 8 1007.2 - 0.0 - - - - - - -
13/01:30am 27.9 E 5 6 1007.6 - 0.0 - - - - - - -
13/01:00am 27.9 ESE 5 8 1008.0 - 0.0 - - - - - - -
13/12:30am 27.8 E 5 7 1008.4 - 0.0 - - - - - - -
13/12:00am 27.8 ESE 5 7 1008.7 - 0.0 - - - - - - -
 
Date/Time
EST
Temp

°C
Wind Pressure Rain
since 9am
mm
Weather Cloud Vis
km
Sea
Height
m
Swell
Dir
 
Speed
knots
Gust
knots
hPa Trend Height
m
Period
s
Dir
12/11:30pm 27.9 ENE 5 7 1009.0 - 0.0 - - - - - - -
12/11:00pm 28.1 NE 5 7 1009.3 - 0.0 - - - - - - -
12/10:30pm 28.1 NE 7 9 1009.3 - 0.0 - - - - - - -
12/10:00pm 28.1 ENE 7 10 1009.1 - 0.0 - - - - - - -
12/09:30pm 28.1 ENE 9 12 1008.7 - 0.0 - - - - - - -
12/09:00pm 28.3 ENE 10 12 1008.5 - 0.0 - - - - - - -
12/08:30pm 28.5 NNE 10 11 1008.2 - 0.0 - - - - - - -
12/08:00pm 28.6 N 10 13 1007.6 - 0.0 - - - - - - -
12/07:30pm 28.5 N 11 14 1007.1 - 0.0 - - - - - - -
12/07:00pm 28.6 N 9 12 1006.6 - 0.0 - - - - - - -
12/06:30pm 28.9 NNW 10 11 1006.3 - 0.0 - - - - - - -
12/06:00pm 29.1 N 9 12 1006.2 - 0.0 - - - - - - -
12/05:30pm 29.4 N 10 13 1006.1 - 0.0 - - - - - - -
12/05:00pm 29.1 NNE 10 12 1005.9 - 0.0 - - - - - - -
12/04:30pm 28.6 NE 9 11 1005.8 - 0.0 - - - - - - -
12/04:00pm 28.6 ENE 10 13 1005.8 - 0.0 - - - - - - -
12/03:30pm 29.0 ENE 8 11 1006.0 - 0.0 - - - - - - -
12/03:00pm 29.3 ENE 9 12 1006.1 - 0.0 - - - - - - -
12/02:30pm 29.3 E 9 11 1006.4 - 0.0 - - - - - - -
12/02:00pm 29.4 ENE 7 11 1006.8 - 0.0 - - - - - - -
12/01:30pm 29.7 E 6 8 1007.1 - 0.0 - - - - - - -
12/01:00pm 30.6 ESE 6 8 1007.6 - 0.0 - - - - - - -
12/12:30pm 28.8 S 6 8 1008.1 - 0.0 - - - - - - -
12/12:00pm 28.7 S 5 8 1008.6 - 0.0 - - - - - - -
12/11:30am 28.5 S 6 8 1009.1 - 0.0 - - - - - - -
12/11:00am 27.9 SSW 7 10 1009.5 - 0.0 - - - - - - -
12/10:30am 28.4 SSW 7 10 1009.6 - 0.0 - - - - - - -
12/10:00am 27.7 SSW 7 9 1009.9 - 0.0 - - - - - - -
12/09:30am 27.4 SSW 8 10 1010.3 - 0.0 - - - - - - -
12/09:00am 27.2 SW 7 9 1010.2 - 0.6 - - - - - - -
12/08:30am 26.7 SW 9 11 1010.0 - 0.6 - - - - - - -
12/08:00am 26.3 WSW 10 12 1009.9 - 0.6 - - - - - - -
12/07:30am 25.7 WSW 12 13 1009.6 - 0.6 - - - - - - -
12/07:00am 25.5 WSW 13 14 1009.5 - 0.6 - - - - - - -
12/06:30am 25.0 WSW 11 12 1009.1 - 0.6 - - - - - - -
12/06:00am 24.9 WSW 11 13 1008.9 - 0.6 - - - - - - -
12/05:30am 25.3 WSW 13 14 1008.6 - 0.6 - - - - - - -
12/05:00am 25.5 SW 12 14 1008.5 - 0.6 - - - - - - -
12/04:30am 25.0 SW 15 17 1008.2 - 0.6 - - - - - - -
12/04:00am 25.6 SW 9 11 1008.2 - 0.2 - - - - - - -
12/03:30am 25.7 WSW 10 11 1008.1 - 0.2 - - - - - - -

Other Formats:

Comma delimited format used in spreadsheet applications
http://www.bom.gov.au/fwo/IDQ60701/IDQ60701.94295.axf

JavaScript Object Notation format (JSON) in row-major order
http://www.bom.gov.au/fwo/IDQ60701/IDQ60701.94295.json